sensor_id;sensor_type;location;lat;lon;timestamp;temperature;humidity
8824;DHT22;4448;50.904;4.694;2023-02-18T00:00:18;11.50;99.90
8824;DHT22;4448;50.904;4.694;2023-02-18T00:02:45;11.50;99.90
8824;DHT22;4448;50.904;4.694;2023-02-18T00:05:11;11.50;99.90
8824;DHT22;4448;50.904;4.694;2023-02-18T00:07:38;11.50;99.90
8824;DHT22;4448;50.904;4.694;2023-02-18T00:10:08;11.50;99.90
8824;DHT22;4448;50.904;4.694;2023-02-18T00:12:34;11.50;99.90
8824;DHT22;4448;50.904;4.694;2023-02-18T00:14:59;11.40;99.90
8824;DHT22;4448;50.904;4.694;2023-02-18T00:17:25;11.50;99.90
8824;DHT22;4448;50.904;4.694;2023-02-18T00:19:51;11.50;99.90
8824;DHT22;4448;50.904;4.694;2023-02-18T00:22:16;11.50;99.90
8824;DHT22;4448;50.904;4.694;2023-02-18T00:24:42;11.40;99.90
8824;DHT22;4448;50.904;4.694;2023-02-18T00:27:08;11.40;99.90
8824;DHT22;4448;50.904;4.694;2023-02-18T00:29:33;11.40;99.90
8824;DHT22;4448;50.904;4.694;2023-02-18T00:31:59;11.40;99.90
8824;DHT22;4448;50.904;4.694;2023-02-18T00:34:25;11.40;99.90
8824;DHT22;4448;50.904;4.694;2023-02-18T00:36:50;11.40;99.90
8824;DHT22;4448;50.904;4.694;2023-02-18T00:39:16;11.50;99.90
8824;DHT22;4448;50.904;4.694;2023-02-18T00:41:42;11.40;99.90
8824;DHT22;4448;50.904;4.694;2023-02-18T00:44:08;11.40;99.90
8824;DHT22;4448;50.904;4.694;2023-02-18T00:46:34;11.40;99.90
8824;DHT22;4448;50.904;4.694;2023-02-18T00:49:00;11.40;99.90
8824;DHT22;4448;50.904;4.694;2023-02-18T00:51:26;11.40;99.90
8824;DHT22;4448;50.904;4.694;2023-02-18T00:53:51;11.40;99.90
8824;DHT22;4448;50.904;4.694;2023-02-18T00:56:17;11.40;99.90
8824;DHT22;4448;50.904;4.694;2023-02-18T00:58:43;11.40;99.90
8824;DHT22;4448;50.904;4.694;2023-02-18T01:01:10;11.40;99.90
8824;DHT22;4448;50.904;4.694;2023-02-18T01:03:37;11.40;99.90
8824;DHT22;4448;50.904;4.694;2023-02-18T01:06:04;11.40;99.90
8824;DHT22;4448;50.904;4.694;2023-02-18T01:08:30;11.40;99.90
8824;DHT22;4448;50.904;4.694;2023-02-18T01:10:57;11.40;99.90
8824;DHT22;4448;50.904;4.694;2023-02-18T01:13:24;11.40;99.90
8824;DHT22;4448;50.904;4.694;2023-02-18T01:15:50;11.40;99.90
8824;DHT22;4448;50.904;4.694;2023-02-18T01:18:16;11.40;99.90
8824;DHT22;4448;50.904;4.694;2023-02-18T01:20:43;11.40;99.90
8824;DHT22;4448;50.904;4.694;2023-02-18T01:23:10;11.40;99.90
8824;DHT22;4448;50.904;4.694;2023-02-18T01:25:36;11.40;99.90
8824;DHT22;4448;50.904;4.694;2023-02-18T01:28:03;11.40;99.90
8824;DHT22;4448;50.904;4.694;2023-02-18T01:30:29;11.40;99.90
8824;DHT22;4448;50.904;4.694;2023-02-18T01:32:56;11.40;99.90
8824;DHT22;4448;50.904;4.694;2023-02-18T01:35:22;11.40;99.90
8824;DHT22;4448;50.904;4.694;2023-02-18T01:37:49;11.40;99.90
8824;DHT22;4448;50.904;4.694;2023-02-18T01:40:18;11.40;99.90
8824;DHT22;4448;50.904;4.694;2023-02-18T01:42:45;11.40;99.90
8824;DHT22;4448;50.904;4.694;2023-02-18T01:48:03;11.40;99.90
8824;DHT22;4448;50.904;4.694;2023-02-18T01:50:31;11.40;99.90
8824;DHT22;4448;50.904;4.694;2023-02-18T01:52:58;11.40;99.90
8824;DHT22;4448;50.904;4.694;2023-02-18T01:55:25;11.40;99.90
8824;DHT22;4448;50.904;4.694;2023-02-18T01:57:51;11.40;99.90
8824;DHT22;4448;50.904;4.694;2023-02-18T02:00:17;11.30;99.90
8824;DHT22;4448;50.904;4.694;2023-02-18T02:02:47;11.40;99.90
8824;DHT22;4448;50.904;4.694;2023-02-18T02:05:15;11.30;99.90
8824;DHT22;4448;50.904;4.694;2023-02-18T02:07:42;11.30;99.90
8824;DHT22;4448;50.904;4.694;2023-02-18T02:10:10;11.30;99.90
8824;DHT22;4448;50.904;4.694;2023-02-18T02:29:29;11.30;99.90
8824;DHT22;4448;50.904;4.694;2023-02-18T02:32:23;11.30;99.90
8824;DHT22;4448;50.904;4.694;2023-02-18T02:38:04;11.30;99.90
8824;DHT22;4448;50.904;4.694;2023-02-18T02:40:51;11.30;99.90
8824;DHT22;4448;50.904;4.694;2023-02-18T02:43:47;11.30;99.90
8824;DHT22;4448;50.904;4.694;2023-02-18T02:46:25;11.30;99.90
8824;DHT22;4448;50.904;4.694;2023-02-18T02:49:31;11.30;99.90
8824;DHT22;4448;50.904;4.694;2023-02-18T02:52:04;11.30;99.90
8824;DHT22;4448;50.904;4.694;2023-02-18T02:54:32;11.30;99.90
8824;DHT22;4448;50.904;4.694;2023-02-18T02:59:48;11.30;99.90
8824;DHT22;4448;50.904;4.694;2023-02-18T03:02:25;11.20;99.90
8824;DHT22;4448;50.904;4.694;2023-02-18T03:05:07;11.30;99.90
8824;DHT22;4448;50.904;4.694;2023-02-18T03:07:59;11.30;99.90
8824;DHT22;4448;50.904;4.694;2023-02-18T03:15:54;11.30;99.90
8824;DHT22;4448;50.904;4.694;2023-02-18T03:18:37;11.20;99.90
8824;DHT22;4448;50.904;4.694;2023-02-18T03:21:05;11.20;99.90
8824;DHT22;4448;50.904;4.694;2023-02-18T03:23:37;11.30;99.90
8824;DHT22;4448;50.904;4.694;2023-02-18T03:26:05;11.20;99.90
8824;DHT22;4448;50.904;4.694;2023-02-18T03:28:31;11.20;99.90
8824;DHT22;4448;50.904;4.694;2023-02-18T03:31:06;11.30;99.90
8824;DHT22;4448;50.904;4.694;2023-02-18T03:33:42;11.20;99.90
8824;DHT22;4448;50.904;4.694;2023-02-18T03:36:09;11.20;99.90
8824;DHT22;4448;50.904;4.694;2023-02-18T03:38:52;11.20;99.90
8824;DHT22;4448;50.904;4.694;2023-02-18T03:41:18;11.20;99.90
8824;DHT22;4448;50.904;4.694;2023-02-18T03:43:49;11.20;99.90
8824;DHT22;4448;50.904;4.694;2023-02-18T03:46:15;11.20;99.90
8824;DHT22;4448;50.904;4.694;2023-02-18T03:48:41;11.20;99.90
8824;DHT22;4448;50.904;4.694;2023-02-18T03:51:07;11.20;99.90
8824;DHT22;4448;50.904;4.694;2023-02-18T03:53:33;11.20;99.90
8824;DHT22;4448;50.904;4.694;2023-02-18T03:55:58;11.20;99.90
8824;DHT22;4448;50.904;4.694;2023-02-18T03:58:24;11.20;99.90
8824;DHT22;4448;50.904;4.694;2023-02-18T04:00:49;11.10;99.90
8824;DHT22;4448;50.904;4.694;2023-02-18T04:03:15;11.20;99.90
8824;DHT22;4448;50.904;4.694;2023-02-18T04:05:41;11.20;99.90
8824;DHT22;4448;50.904;4.694;2023-02-18T04:08:07;11.10;99.90
8824;DHT22;4448;50.904;4.694;2023-02-18T04:10:32;11.10;99.90
8824;DHT22;4448;50.904;4.694;2023-02-18T04:12:58;11.20;99.90
8824;DHT22;4448;50.904;4.694;2023-02-18T04:15:24;11.10;99.90
8824;DHT22;4448;50.904;4.694;2023-02-18T04:17:49;11.10;99.90
8824;DHT22;4448;50.904;4.694;2023-02-18T04:20:15;11.10;99.90
8824;DHT22;4448;50.904;4.694;2023-02-18T04:22:42;11.10;99.90
8824;DHT22;4448;50.904;4.694;2023-02-18T04:25:08;11.10;99.90
8824;DHT22;4448;50.904;4.694;2023-02-18T04:27:33;11.10;99.90
8824;DHT22;4448;50.904;4.694;2023-02-18T04:29:59;11.10;99.90
8824;DHT22;4448;50.904;4.694;2023-02-18T04:32:24;11.10;99.90
8824;DHT22;4448;50.904;4.694;2023-02-18T04:34:50;11.10;99.90
8824;DHT22;4448;50.904;4.694;2023-02-18T04:37:16;11.10;99.90
8824;DHT22;4448;50.904;4.694;2023-02-18T04:39:41;11.10;99.90
8824;DHT22;4448;50.904;4.694;2023-02-18T04:42:07;11.10;99.90
8824;DHT22;4448;50.904;4.694;2023-02-18T04:44:37;11.10;99.90
8824;DHT22;4448;50.904;4.694;2023-02-18T04:47:04;11.10;99.90
8824;DHT22;4448;50.904;4.694;2023-02-18T04:49:30;11.00;99.90
8824;DHT22;4448;50.904;4.694;2023-02-18T04:51:56;11.00;99.90
8824;DHT22;4448;50.904;4.694;2023-02-18T04:54:22;11.00;99.90
8824;DHT22;4448;50.904;4.694;2023-02-18T04:56:47;11.00;99.90
8824;DHT22;4448;50.904;4.694;2023-02-18T04:59:13;11.10;99.90
8824;DHT22;4448;50.904;4.694;2023-02-18T05:01:38;11.00;99.90
8824;DHT22;4448;50.904;4.694;2023-02-18T05:04:04;11.00;99.90
8824;DHT22;4448;50.904;4.694;2023-02-18T05:06:30;11.00;99.90
8824;DHT22;4448;50.904;4.694;2023-02-18T05:08:55;11.00;99.90
8824;DHT22;4448;50.904;4.694;2023-02-18T05:11:21;11.00;99.90
8824;DHT22;4448;50.904;4.694;2023-02-18T05:13:46;11.00;99.90
8824;DHT22;4448;50.904;4.694;2023-02-18T05:16:12;11.00;99.90
8824;DHT22;4448;50.904;4.694;2023-02-18T05:18:38;11.00;99.90
8824;DHT22;4448;50.904;4.694;2023-02-18T05:21:05;11.00;99.90
8824;DHT22;4448;50.904;4.694;2023-02-18T05:23:31;11.00;99.90
8824;DHT22;4448;50.904;4.694;2023-02-18T05:25:56;11.00;99.90
8824;DHT22;4448;50.904;4.694;2023-02-18T05:28:22;11.00;99.90
8824;DHT22;4448;50.904;4.694;2023-02-18T05:30:48;11.00;99.90
8824;DHT22;4448;50.904;4.694;2023-02-18T05:33:13;11.00;99.90
8824;DHT22;4448;50.904;4.694;2023-02-18T05:35:39;11.00;99.90
8824;DHT22;4448;50.904;4.694;2023-02-18T05:38:05;11.00;99.90
8824;DHT22;4448;50.904;4.694;2023-02-18T05:40:30;11.00;99.90
8824;DHT22;4448;50.904;4.694;2023-02-18T05:42:56;11.00;99.90
8824;DHT22;4448;50.904;4.694;2023-02-18T05:45:22;11.00;99.90
8824;DHT22;4448;50.904;4.694;2023-02-18T05:47:47;11.00;99.90
8824;DHT22;4448;50.904;4.694;2023-02-18T05:50:13;11.00;99.90
8824;DHT22;4448;50.904;4.694;2023-02-18T05:52:40;11.00;99.90
8824;DHT22;4448;50.904;4.694;2023-02-18T05:55:06;10.90;99.90
8824;DHT22;4448;50.904;4.694;2023-02-18T05:57:31;10.90;99.90
8824;DHT22;4448;50.904;4.694;2023-02-18T05:59:57;10.90;99.90
8824;DHT22;4448;50.904;4.694;2023-02-18T06:02:23;10.90;99.90
8824;DHT22;4448;50.904;4.694;2023-02-18T06:04:48;10.90;99.90
8824;DHT22;4448;50.904;4.694;2023-02-18T06:07:14;10.90;99.90
8824;DHT22;4448;50.904;4.694;2023-02-18T06:09:40;10.90;99.90
8824;DHT22;4448;50.904;4.694;2023-02-18T06:12:05;10.90;99.90
8824;DHT22;4448;50.904;4.694;2023-02-18T06:14:31;10.90;99.90
8824;DHT22;4448;50.904;4.694;2023-02-18T06:16:57;10.80;99.90
8824;DHT22;4448;50.904;4.694;2023-02-18T06:19:23;10.80;99.90
8824;DHT22;4448;50.904;4.694;2023-02-18T06:21:48;10.80;99.90
8824;DHT22;4448;50.904;4.694;2023-02-18T06:24:14;10.80;99.90
8824;DHT22;4448;50.904;4.694;2023-02-18T06:26:40;10.80;99.90
8824;DHT22;4448;50.904;4.694;2023-02-18T06:29:05;10.80;99.90
8824;DHT22;4448;50.904;4.694;2023-02-18T06:31:31;10.80;99.90
8824;DHT22;4448;50.904;4.694;2023-02-18T06:33:57;10.80;99.90
8824;DHT22;4448;50.904;4.694;2023-02-18T06:36:22;10.80;99.90
8824;DHT22;4448;50.904;4.694;2023-02-18T06:38:48;10.80;99.90
8824;DHT22;4448;50.904;4.694;2023-02-18T06:41:14;10.70;99.90
8824;DHT22;4448;50.904;4.694;2023-02-18T06:43:40;10.70;99.90
8824;DHT22;4448;50.904;4.694;2023-02-18T06:46:06;10.70;99.90
8824;DHT22;4448;50.904;4.694;2023-02-18T06:48:32;10.70;99.90
8824;DHT22;4448;50.904;4.694;2023-02-18T06:50:57;10.70;99.90
8824;DHT22;4448;50.904;4.694;2023-02-18T06:53:23;10.70;99.90
8824;DHT22;4448;50.904;4.694;2023-02-18T06:55:49;10.70;99.90
8824;DHT22;4448;50.904;4.694;2023-02-18T06:58:15;10.70;99.90
8824;DHT22;4448;50.904;4.694;2023-02-18T07:00:40;10.70;99.90
8824;DHT22;4448;50.904;4.694;2023-02-18T07:03:06;10.70;99.90
8824;DHT22;4448;50.904;4.694;2023-02-18T07:05:32;10.60;99.90
8824;DHT22;4448;50.904;4.694;2023-02-18T07:07:58;10.70;99.90
8824;DHT22;4448;50.904;4.694;2023-02-18T07:10:23;10.60;99.90
8824;DHT22;4448;50.904;4.694;2023-02-18T07:12:49;10.60;99.90
8824;DHT22;4448;50.904;4.694;2023-02-18T07:15:15;10.60;99.90
8824;DHT22;4448;50.904;4.694;2023-02-18T07:17:40;10.60;99.90
8824;DHT22;4448;50.904;4.694;2023-02-18T07:20:07;10.60;99.90
8824;DHT22;4448;50.904;4.694;2023-02-18T07:22:33;10.60;99.90
8824;DHT22;4448;50.904;4.694;2023-02-18T07:24:58;10.60;99.90
8824;DHT22;4448;50.904;4.694;2023-02-18T07:27:24;10.60;99.90
8824;DHT22;4448;50.904;4.694;2023-02-18T07:29:50;10.60;99.90
8824;DHT22;4448;50.904;4.694;2023-02-18T07:32:17;10.60;99.90
8824;DHT22;4448;50.904;4.694;2023-02-18T07:34:43;10.70;99.90
8824;DHT22;4448;50.904;4.694;2023-02-18T07:37:09;10.60;99.90
8824;DHT22;4448;50.904;4.694;2023-02-18T07:39:35;10.60;99.90
8824;DHT22;4448;50.904;4.694;2023-02-18T07:42:04;10.60;99.90
8824;DHT22;4448;50.904;4.694;2023-02-18T07:44:29;10.60;99.90
8824;DHT22;4448;50.904;4.694;2023-02-18T07:46:55;10.60;99.90
8824;DHT22;4448;50.904;4.694;2023-02-18T07:49:21;10.60;99.90
8824;DHT22;4448;50.904;4.694;2023-02-18T07:51:48;10.60;99.90
8824;DHT22;4448;50.904;4.694;2023-02-18T07:54:14;10.60;99.90
8824;DHT22;4448;50.904;4.694;2023-02-18T07:56:40;10.60;99.90
8824;DHT22;4448;50.904;4.694;2023-02-18T07:59:08;10.70;99.90
8824;DHT22;4448;50.904;4.694;2023-02-18T08:01:34;10.60;99.90
8824;DHT22;4448;50.904;4.694;2023-02-18T08:04:00;10.60;99.90
8824;DHT22;4448;50.904;4.694;2023-02-18T08:06:36;10.70;99.90
8824;DHT22;4448;50.904;4.694;2023-02-18T08:09:03;10.70;99.90
8824;DHT22;4448;50.904;4.694;2023-02-18T08:11:30;10.70;99.90
8824;DHT22;4448;50.904;4.694;2023-02-18T08:13:56;10.70;99.90
8824;DHT22;4448;50.904;4.694;2023-02-18T08:16:22;10.70;99.90
8824;DHT22;4448;50.904;4.694;2023-02-18T08:18:49;10.70;99.90
8824;DHT22;4448;50.904;4.694;2023-02-18T08:21:17;10.70;99.90
8824;DHT22;4448;50.904;4.694;2023-02-18T08:23:43;10.70;99.90
8824;DHT22;4448;50.904;4.694;2023-02-18T08:26:28;10.70;99.90
8824;DHT22;4448;50.904;4.694;2023-02-18T08:28:53;10.80;99.90
8824;DHT22;4448;50.904;4.694;2023-02-18T08:31:24;10.80;99.90
8824;DHT22;4448;50.904;4.694;2023-02-18T08:33:52;10.80;99.90
8824;DHT22;4448;50.904;4.694;2023-02-18T08:36:18;10.80;99.90
8824;DHT22;4448;50.904;4.694;2023-02-18T08:38:44;10.80;99.90
8824;DHT22;4448;50.904;4.694;2023-02-18T08:41:10;10.80;99.90
8824;DHT22;4448;50.904;4.694;2023-02-18T08:43:36;10.80;99.90
8824;DHT22;4448;50.904;4.694;2023-02-18T08:46:02;10.80;99.90
8824;DHT22;4448;50.904;4.694;2023-02-18T08:48:28;10.80;99.90
8824;DHT22;4448;50.904;4.694;2023-02-18T08:50:54;10.90;99.90
8824;DHT22;4448;50.904;4.694;2023-02-18T08:53:20;10.90;99.90
8824;DHT22;4448;50.904;4.694;2023-02-18T08:55:46;10.90;99.90
8824;DHT22;4448;50.904;4.694;2023-02-18T08:58:12;10.90;99.90
8824;DHT22;4448;50.904;4.694;2023-02-18T09:00:39;10.90;99.90
8824;DHT22;4448;50.904;4.694;2023-02-18T09:03:05;11.00;99.90
8824;DHT22;4448;50.904;4.694;2023-02-18T09:05:31;11.00;99.90
8824;DHT22;4448;50.904;4.694;2023-02-18T09:07:57;11.00;99.90
8824;DHT22;4448;50.904;4.694;2023-02-18T09:10:22;11.00;99.90
8824;DHT22;4448;50.904;4.694;2023-02-18T09:12:48;11.00;99.90
8824;DHT22;4448;50.904;4.694;2023-02-18T09:15:14;11.00;99.90
8824;DHT22;4448;50.904;4.694;2023-02-18T09:17:39;11.10;99.90
8824;DHT22;4448;50.904;4.694;2023-02-18T09:20:06;11.10;99.90
8824;DHT22;4448;50.904;4.694;2023-02-18T09:22:31;11.10;99.90
8824;DHT22;4448;50.904;4.694;2023-02-18T09:24:57;11.10;99.90
8824;DHT22;4448;50.904;4.694;2023-02-18T09:27:23;11.10;99.90
8824;DHT22;4448;50.904;4.694;2023-02-18T09:29:49;11.20;99.90
8824;DHT22;4448;50.904;4.694;2023-02-18T09:32:16;11.20;99.90
8824;DHT22;4448;50.904;4.694;2023-02-18T09:34:43;11.20;99.90
8824;DHT22;4448;50.904;4.694;2023-02-18T09:37:09;11.20;99.90
8824;DHT22;4448;50.904;4.694;2023-02-18T09:39:35;11.20;99.90
8824;DHT22;4448;50.904;4.694;2023-02-18T09:42:03;11.20;99.90
8824;DHT22;4448;50.904;4.694;2023-02-18T09:44:44;11.20;99.90
8824;DHT22;4448;50.904;4.694;2023-02-18T09:47:29;11.30;99.90
8824;DHT22;4448;50.904;4.694;2023-02-18T09:52:49;11.20;99.90
8824;DHT22;4448;50.904;4.694;2023-02-18T09:55:20;11.30;99.90
8824;DHT22;4448;50.904;4.694;2023-02-18T09:57:51;11.30;99.90
8824;DHT22;4448;50.904;4.694;2023-02-18T10:00:27;11.30;99.90
8824;DHT22;4448;50.904;4.694;2023-02-18T10:03:06;11.30;99.90
8824;DHT22;4448;50.904;4.694;2023-02-18T10:05:34;11.30;99.90
8824;DHT22;4448;50.904;4.694;2023-02-18T10:08:05;11.40;99.90
8824;DHT22;4448;50.904;4.694;2023-02-18T10:10:45;11.40;99.90
8824;DHT22;4448;50.904;4.694;2023-02-18T10:13:17;11.40;99.90
8824;DHT22;4448;50.904;4.694;2023-02-18T10:15:43;11.40;99.90
8824;DHT22;4448;50.904;4.694;2023-02-18T10:21:31;11.40;99.90
8824;DHT22;4448;50.904;4.694;2023-02-18T10:26:43;11.40;99.90
8824;DHT22;4448;50.904;4.694;2023-02-18T10:29:16;11.40;99.90
8824;DHT22;4448;50.904;4.694;2023-02-18T10:31:44;11.40;99.90
8824;DHT22;4448;50.904;4.694;2023-02-18T10:34:37;11.40;99.90
8824;DHT22;4448;50.904;4.694;2023-02-18T10:42:40;11.50;99.90
8824;DHT22;4448;50.904;4.694;2023-02-18T10:50:40;11.50;99.90
8824;DHT22;4448;50.904;4.694;2023-02-18T10:53:35;11.50;99.90
8824;DHT22;4448;50.904;4.694;2023-02-18T10:56:02;11.50;99.90
8824;DHT22;4448;50.904;4.694;2023-02-18T10:58:46;11.50;99.90
8824;DHT22;4448;50.904;4.694;2023-02-18T11:01:16;11.50;99.90
8824;DHT22;4448;50.904;4.694;2023-02-18T11:03:44;11.50;99.90
8824;DHT22;4448;50.904;4.694;2023-02-18T11:06:30;11.50;99.90
8824;DHT22;4448;50.904;4.694;2023-02-18T11:08:57;11.60;99.90
8824;DHT22;4448;50.904;4.694;2023-02-18T11:11:28;11.60;99.90
8824;DHT22;4448;50.904;4.694;2023-02-18T11:13:57;11.60;99.90
8824;DHT22;4448;50.904;4.694;2023-02-18T11:16:36;11.60;99.90
8824;DHT22;4448;50.904;4.694;2023-02-18T11:19:02;11.60;99.90
8824;DHT22;4448;50.904;4.694;2023-02-18T11:21:36;11.60;99.90
8824;DHT22;4448;50.904;4.694;2023-02-18T11:24:08;11.60;99.90
8824;DHT22;4448;50.904;4.694;2023-02-18T11:26:35;11.60;99.90
8824;DHT22;4448;50.904;4.694;2023-02-18T11:29:23;11.60;99.90
8824;DHT22;4448;50.904;4.694;2023-02-18T11:31:51;11.70;99.90
8824;DHT22;4448;50.904;4.694;2023-02-18T11:34:21;11.60;99.90
8824;DHT22;4448;50.904;4.694;2023-02-18T11:36:49;11.60;99.90
8824;DHT22;4448;50.904;4.694;2023-02-18T11:39:23;11.70;99.90
8824;DHT22;4448;50.904;4.694;2023-02-18T11:42:04;11.60;99.90
8824;DHT22;4448;50.904;4.694;2023-02-18T11:44:35;11.60;99.90
8824;DHT22;4448;50.904;4.694;2023-02-18T11:47:05;11.70;99.90
8824;DHT22;4448;50.904;4.694;2023-02-18T11:49:33;11.70;99.90
8824;DHT22;4448;50.904;4.694;2023-02-18T11:52:23;11.70;99.90
8824;DHT22;4448;50.904;4.694;2023-02-18T11:55:07;11.70;99.90
8824;DHT22;4448;50.904;4.694;2023-02-18T11:57:36;11.70;99.90
8824;DHT22;4448;50.904;4.694;2023-02-18T12:02:46;11.70;99.90
8824;DHT22;4448;50.904;4.694;2023-02-18T12:05:23;11.70;99.90
8824;DHT22;4448;50.904;4.694;2023-02-18T12:08:03;11.70;99.90
8824;DHT22;4448;50.904;4.694;2023-02-18T12:10:42;11.70;99.90
8824;DHT22;4448;50.904;4.694;2023-02-18T12:13:38;11.80;99.90
8824;DHT22;4448;50.904;4.694;2023-02-18T12:16:13;11.70;99.90
8824;DHT22;4448;50.904;4.694;2023-02-18T12:18:53;11.70;99.90
8824;DHT22;4448;50.904;4.694;2023-02-18T12:24:16;11.70;99.90
8824;DHT22;4448;50.904;4.694;2023-02-18T12:27:15;11.70;99.90
8824;DHT22;4448;50.904;4.694;2023-02-18T12:30:02;11.80;99.90
8824;DHT22;4448;50.904;4.694;2023-02-18T12:32:54;11.80;99.90
8824;DHT22;4448;50.904;4.694;2023-02-18T12:55:15;11.80;99.90
8824;DHT22;4448;50.904;4.694;2023-02-18T12:57:37;11.80;99.90
8824;DHT22;4448;50.904;4.694;2023-02-18T13:14:11;11.80;99.90
8824;DHT22;4448;50.904;4.694;2023-02-18T13:16:40;11.80;99.90
8824;DHT22;4448;50.904;4.694;2023-02-18T13:19:50;11.80;99.90
8824;DHT22;4448;50.904;4.694;2023-02-18T13:22:19;11.80;99.90
8824;DHT22;4448;50.904;4.694;2023-02-18T13:24:48;11.70;99.90
8824;DHT22;4448;50.904;4.694;2023-02-18T13:27:35;11.70;99.90
8824;DHT22;4448;50.904;4.694;2023-02-18T13:30:41;11.80;99.90
8824;DHT22;4448;50.904;4.694;2023-02-18T13:33:46;11.70;99.90
8824;DHT22;4448;50.904;4.694;2023-02-18T13:39:05;11.70;99.90
8824;DHT22;4448;50.904;4.694;2023-02-18T13:41:40;11.70;99.90
8824;DHT22;4448;50.904;4.694;2023-02-18T13:46:55;11.70;99.90
8824;DHT22;4448;50.904;4.694;2023-02-18T13:49:30;11.70;99.90
8824;DHT22;4448;50.904;4.694;2023-02-18T13:51:57;11.70;99.90
8824;DHT22;4448;50.904;4.694;2023-02-18T13:54:33;11.70;99.90
8824;DHT22;4448;50.904;4.694;2023-02-18T13:57:24;11.70;99.90
8824;DHT22;4448;50.904;4.694;2023-02-18T14:00:01;11.70;99.90
8824;DHT22;4448;50.904;4.694;2023-02-18T14:02:33;11.70;99.90
8824;DHT22;4448;50.904;4.694;2023-02-18T14:05:23;11.70;99.90
8824;DHT22;4448;50.904;4.694;2023-02-18T14:08:04;11.70;99.90
8824;DHT22;4448;50.904;4.694;2023-02-18T14:10:34;11.70;99.90
8824;DHT22;4448;50.904;4.694;2023-02-18T14:13:01;11.70;99.90
8824;DHT22;4448;50.904;4.694;2023-02-18T14:31:05;11.60;99.90
8824;DHT22;4448;50.904;4.694;2023-02-18T14:33:33;11.60;99.90
8824;DHT22;4448;50.904;4.694;2023-02-18T14:36:23;11.70;99.90
8824;DHT22;4448;50.904;4.694;2023-02-18T14:39:06;11.60;99.90
8824;DHT22;4448;50.904;4.694;2023-02-18T14:47:21;11.60;99.90
8824;DHT22;4448;50.904;4.694;2023-02-18T14:49:52;11.60;99.90
8824;DHT22;4448;50.904;4.694;2023-02-18T14:52:37;11.60;99.90
8824;DHT22;4448;50.904;4.694;2023-02-18T14:55:36;11.60;99.90
8824;DHT22;4448;50.904;4.694;2023-02-18T15:00:51;11.70;99.90
8824;DHT22;4448;50.904;4.694;2023-02-18T15:03:18;11.70;99.90
8824;DHT22;4448;50.904;4.694;2023-02-18T15:05:47;11.70;99.90
8824;DHT22;4448;50.904;4.694;2023-02-18T15:08:16;11.70;99.90
8824;DHT22;4448;50.904;4.694;2023-02-18T15:13:32;11.70;99.90
8824;DHT22;4448;50.904;4.694;2023-02-18T15:16:06;11.70;99.90
8824;DHT22;4448;50.904;4.694;2023-02-18T15:21:05;11.70;99.90
8824;DHT22;4448;50.904;4.694;2023-02-18T15:23:34;11.70;99.90
8824;DHT22;4448;50.904;4.694;2023-02-18T15:26:01;11.70;99.90
8824;DHT22;4448;50.904;4.694;2023-02-18T15:28:29;11.70;99.90
8824;DHT22;4448;50.904;4.694;2023-02-18T15:31:00;11.70;99.90
8824;DHT22;4448;50.904;4.694;2023-02-18T15:33:29;11.70;99.90
8824;DHT22;4448;50.904;4.694;2023-02-18T15:36:03;11.70;99.90
8824;DHT22;4448;50.904;4.694;2023-02-18T15:38:30;11.70;99.90
8824;DHT22;4448;50.904;4.694;2023-02-18T15:40:56;11.70;99.90
8824;DHT22;4448;50.904;4.694;2023-02-18T15:43:24;11.70;99.90
8824;DHT22;4448;50.904;4.694;2023-02-18T15:45:54;11.70;99.90
8824;DHT22;4448;50.904;4.694;2023-02-18T15:50:55;11.70;99.90
8824;DHT22;4448;50.904;4.694;2023-02-18T15:53:21;11.70;99.90
8824;DHT22;4448;50.904;4.694;2023-02-18T15:55:49;11.70;99.90
8824;DHT22;4448;50.904;4.694;2023-02-18T15:58:27;11.60;99.90
8824;DHT22;4448;50.904;4.694;2023-02-18T16:00:56;11.60;99.90
8824;DHT22;4448;50.904;4.694;2023-02-18T16:03:31;11.60;99.90
8824;DHT22;4448;50.904;4.694;2023-02-18T16:06:25;11.60;99.90
8824;DHT22;4448;50.904;4.694;2023-02-18T16:11:34;11.60;99.90
8824;DHT22;4448;50.904;4.694;2023-02-18T16:14:02;11.60;99.90
8824;DHT22;4448;50.904;4.694;2023-02-18T16:16:32;11.60;99.90
8824;DHT22;4448;50.904;4.694;2023-02-18T16:18:59;11.60;99.90
8824;DHT22;4448;50.904;4.694;2023-02-18T16:24:20;11.60;99.90
8824;DHT22;4448;50.904;4.694;2023-02-18T16:26:50;11.60;99.90
8824;DHT22;4448;50.904;4.694;2023-02-18T16:29:26;11.60;99.90
8824;DHT22;4448;50.904;4.694;2023-02-18T16:31:58;11.60;99.90
8824;DHT22;4448;50.904;4.694;2023-02-18T16:34:23;11.60;99.90
8824;DHT22;4448;50.904;4.694;2023-02-18T16:36:49;11.50;99.90
8824;DHT22;4448;50.904;4.694;2023-02-18T16:39:34;11.50;99.90
8824;DHT22;4448;50.904;4.694;2023-02-18T16:42:00;11.60;99.90
8824;DHT22;4448;50.904;4.694;2023-02-18T16:44:25;11.50;99.90
8824;DHT22;4448;50.904;4.694;2023-02-18T16:46:51;11.50;99.90
8824;DHT22;4448;50.904;4.694;2023-02-18T16:49:17;11.50;99.90
8824;DHT22;4448;50.904;4.694;2023-02-18T16:51:43;11.50;99.90
8824;DHT22;4448;50.904;4.694;2023-02-18T16:54:13;11.50;99.90
8824;DHT22;4448;50.904;4.694;2023-02-18T16:56:39;11.50;99.90
8824;DHT22;4448;50.904;4.694;2023-02-18T16:59:05;11.50;99.90
8824;DHT22;4448;50.904;4.694;2023-02-18T17:01:33;11.50;99.90
8824;DHT22;4448;50.904;4.694;2023-02-18T17:04:03;11.50;99.90
8824;DHT22;4448;50.904;4.694;2023-02-18T17:06:30;11.50;99.90
8824;DHT22;4448;50.904;4.694;2023-02-18T17:08:57;11.50;99.90
8824;DHT22;4448;50.904;4.694;2023-02-18T17:11:25;11.50;99.90
8824;DHT22;4448;50.904;4.694;2023-02-18T17:13:54;11.50;99.90
8824;DHT22;4448;50.904;4.694;2023-02-18T17:16:22;11.50;99.90
8824;DHT22;4448;50.904;4.694;2023-02-18T17:18:48;11.50;99.90
8824;DHT22;4448;50.904;4.694;2023-02-18T17:21:21;11.50;99.90
8824;DHT22;4448;50.904;4.694;2023-02-18T17:23:47;11.50;99.90
8824;DHT22;4448;50.904;4.694;2023-02-18T17:26:31;11.50;99.90
8824;DHT22;4448;50.904;4.694;2023-02-18T17:28:58;11.50;99.90
8824;DHT22;4448;50.904;4.694;2023-02-18T17:31:35;11.50;99.90
8824;DHT22;4448;50.904;4.694;2023-02-18T17:34:04;11.50;99.90
8824;DHT22;4448;50.904;4.694;2023-02-18T17:36:31;11.50;99.90
8824;DHT22;4448;50.904;4.694;2023-02-18T17:38:58;11.50;99.90
8824;DHT22;4448;50.904;4.694;2023-02-18T17:41:23;11.50;99.90
8824;DHT22;4448;50.904;4.694;2023-02-18T17:43:49;11.50;99.90
8824;DHT22;4448;50.904;4.694;2023-02-18T17:46:17;11.50;99.90
8824;DHT22;4448;50.904;4.694;2023-02-18T17:48:44;11.50;99.90
8824;DHT22;4448;50.904;4.694;2023-02-18T17:51:30;11.40;99.90
8824;DHT22;4448;50.904;4.694;2023-02-18T17:53:55;11.40;99.90
8824;DHT22;4448;50.904;4.694;2023-02-18T17:56:21;11.40;99.90
8824;DHT22;4448;50.904;4.694;2023-02-18T17:58:47;11.40;99.90
8824;DHT22;4448;50.904;4.694;2023-02-18T18:01:13;11.50;99.90
8824;DHT22;4448;50.904;4.694;2023-02-18T18:03:39;11.50;99.90
8824;DHT22;4448;50.904;4.694;2023-02-18T18:06:18;11.40;99.90
8824;DHT22;4448;50.904;4.694;2023-02-18T18:08:45;11.40;99.90
8824;DHT22;4448;50.904;4.694;2023-02-18T18:11:19;11.40;99.90
8824;DHT22;4448;50.904;4.694;2023-02-18T18:13:46;11.40;99.90
8824;DHT22;4448;50.904;4.694;2023-02-18T18:16:13;11.40;99.90
8824;DHT22;4448;50.904;4.694;2023-02-18T18:18:39;11.40;99.90
8824;DHT22;4448;50.904;4.694;2023-02-18T18:21:05;11.40;99.90
8824;DHT22;4448;50.904;4.694;2023-02-18T18:23:31;11.40;99.90
8824;DHT22;4448;50.904;4.694;2023-02-18T18:25:59;11.40;99.90
8824;DHT22;4448;50.904;4.694;2023-02-18T18:28:26;11.40;99.90
8824;DHT22;4448;50.904;4.694;2023-02-18T18:30:54;11.40;99.90